Local Weather Ingen bokad jour idag Saturday 25th of May
Flygplats METAR TAF
Airport METAR TAF
ESSL - Linköping251450Z 08008KT 050V110 CAVOK 24/13 Q1021=251430Z 2515/2517 10009KT CAVOK=
ESCF - Malmen251450Z AUTO 08009KT 9999 NCD 25/15 Q1021=NO VALID TAF PUBLISHED
ESSP - Norrköping251450Z AUTO 09008KT 9999 NCD 23/15 Q1022=NO VALID TAF PUBLISHED
ESGJ - Jönköping251450Z 01010KT CAVOK 21/16 Q1020=NO VALID TAF PUBLISHED
ESKN - Skavsta251450Z 13007KT 100V170 CAVOK 23/14 Q1022=251430Z 2515/2615 11007KT CAVOK PROB40 2519/2523 1200 BCFG PROB40 2523/2605 0300 FG VV002=
ESSV - Visby251450Z AUTO 29005KT 9999 NCD 19/13 Q1022=AMD 251407Z 2514/2515 27008KT CAVOK=
ESGG - Göteborg251450Z 05009KT 010V110 9999 VCSH SCT025 24/14 Q1019=251430Z 2515/2615 08006KT 9999 SCT045 PROB40 2515/2520 SHRA FEW045CB PROB40 2610/2612 SHRA SCT050CB TEMPO 2612/2615 4000 SHRA BKN050CB=
FLEET STATUS
Flygplan Tid till service Tid till flygstopp Flygtid Landningar
Aircraft To service To stop Total time Landings
SE-IUD-9.2 h0.8 h13 009.2 h26 729 st.
(1) Horisontgyrot fastnade med indikerad stigande vänstersväng på FL090. Fungerade igen efter sjunk under FL060.
(2) 0.8 timmar till flygstopp
SE-KIT3.3 h13.3 h13 396.7 h26 823 st.
(1) Problem med COM1, hörde ej tornet vid inflygning via Spetsen.
SE-KMH35.0 h45.0 h17 365.0 h64 199 st.
SE-LRL22.8 h32.8 h2 127.2 h4 262 st.
SE-MEKN/AN/A4 104.2 h4 622 st.
SE-MMZ20.5 h30.5 h1 479.5 h2 697 st.
(1) Brandsläckare utlöst
(2) Brandsläckare utlöst
PPR
Ankomst Avgång Flygplan Namn Bränsle
Arrival Departure Aircraft Name Fuel
24/5 17:3027/5 08:00SE-MOALouis GuidezInget
NOTAM
>>> ESSL/LINKOPING/SAAB <<<
+ RWY 29 LIMITED. MAKE WIDE TURNS FIRST 600 METERS FROM THR RWY 29 DUE SOFT RWY SURFACE CONDITIONS. FROM: 20 MAY 2024 10:48 TO: 20 AUG 2024 08:00
+ AERODROME CONTROL TOWER (TWR) HOURS OF SERVICE ARE NOW MON 0340-1500 2025-2135, TUE 0340-1730 2025-2135, WED 0340-1500 2025-2135, THU 0340-1730 2025-2135, FRI 0340-1500 2025-2135, SAT 0340-0430 1510-1640 2025-2135, SUN 0340-0430 1415-1545 2025-2135 FROM: 20 MAY 2024 07:54 TO: 26 MAY 2024 23:59
>>> ESSP/NORRKOPING/KUNGSANGEN <<<
+ OBST ERECTED IN APCH RWY 09 PSN 583352N 0161040E HGT 247FT AGL ELEV 391FT AMSL. LGTD FLG R FROM: 22 MAY 2024 13:33 TO: 07 JUN 2024 14:00
+ AERODROME CONTROL TOWER (TWR) HOURS OF SERVICE ARE NOW MON-TUE 0530-1900, WED 0530-1500 1700-1900, THU 0030-1430, FRI 0530-1600, SAT 2200-2359, SUN 0400-0600 FROM: 22 MAY 2024 12:42 TO: 26 MAY 2024 23:59
+ OCA/OCH CHANGED FOR CIRCLING S RWY: CAT B: OCA 690FT OCH 660FT FROM: 06 MAY 2024 08:59 TO: 07 JUN 2024 14:00
+ OBST ERECTED NORTH OF APCH RWY 09 PSN 583545N 0161210E HGT 184FT AGL ELEV 195FT AMSL. SCHEDULE: DAILY 0430-1400 FROM: 03 MAY 2024 04:30 TO: 31 MAY 2024 14:00
>>> ESCF/LINKOPING/MALMEN <<<
+ ILS RWY 01 U/S FROM: 23 MAY 2024 07:21 TO: 20 JUN 2024 10:00 EST